createdAt,value
2019-06-20T00:01:22.730Z,21.98
2019-06-20T00:03:52.700Z,21.98
2019-06-20T00:06:22.692Z,21.86
2019-06-20T00:08:52.586Z,21.94
2019-06-20T00:11:22.487Z,22.00
2019-06-20T00:13:52.382Z,21.87
2019-06-20T00:16:22.360Z,21.86
2019-06-20T00:18:52.171Z,21.75
2019-06-20T00:21:22.092Z,21.86
2019-06-20T00:23:53.010Z,21.72
2019-06-20T00:26:22.904Z,21.72
2019-06-20T00:28:52.835Z,21.63
2019-06-20T00:31:22.720Z,21.48
2019-06-20T00:33:52.660Z,21.54
2019-06-20T00:36:22.485Z,21.51
2019-06-20T00:38:52.388Z,21.44
2019-06-20T00:41:22.222Z,21.44
2019-06-20T00:43:52.264Z,21.36
2019-06-20T00:46:22.153Z,21.31
2019-06-20T00:48:52.108Z,21.10
2019-06-20T00:51:22.031Z,21.05
2019-06-20T00:53:51.933Z,21.05
2019-06-20T00:56:21.923Z,21.08
2019-06-20T00:58:51.869Z,21.11
2019-06-20T01:01:21.798Z,21.11
2019-06-20T01:03:51.693Z,21.10
2019-06-20T01:06:21.710Z,21.14
2019-06-20T01:08:51.593Z,21.15
2019-06-20T01:11:21.398Z,21.24
2019-06-20T01:13:52.878Z,21.11
2019-06-20T01:16:23.884Z,21.19
2019-06-20T01:18:53.803Z,21.17
2019-06-20T01:21:23.731Z,21.13
2019-06-20T01:23:53.658Z,21.00
2019-06-20T01:26:23.587Z,21.06
2019-06-20T01:28:53.400Z,20.91
2019-06-20T01:31:23.475Z,21.02
2019-06-20T01:33:53.355Z,20.99
2019-06-20T01:36:24.399Z,20.93
2019-06-20T01:38:54.215Z,20.99
2019-06-20T01:41:24.313Z,21.13
2019-06-20T01:43:54.174Z,21.07
2019-06-20T01:46:25.244Z,20.99
2019-06-20T01:48:55.059Z,20.96
2019-06-20T01:51:25.072Z,21.00
2019-06-20T01:53:54.997Z,20.95
2019-06-20T01:56:24.979Z,20.95
2019-06-20T01:58:54.879Z,21.01
2019-06-20T02:01:24.887Z,21.01
2019-06-20T02:03:54.783Z,20.79
2019-06-20T02:06:24.783Z,20.92
2019-06-20T02:08:54.755Z,20.97
2019-06-20T02:11:24.661Z,20.90
2019-06-20T02:14:06.779Z,20.95
2019-06-20T02:16:27.151Z,21.02
2019-06-20T02:18:57.041Z,20.84
2019-06-20T02:21:26.980Z,20.40
2019-06-20T02:23:56.873Z,20.14
2019-06-20T02:26:27.016Z,19.84
2019-06-20T02:28:56.911Z,19.76
2019-06-20T02:31:26.952Z,19.83
2019-06-20T02:33:56.797Z,20.03
2019-06-20T02:36:26.721Z,19.99
2019-06-20T02:38:56.583Z,19.88
2019-06-20T02:41:26.476Z,19.84
2019-06-20T02:43:56.671Z,19.84
2019-06-20T02:46:26.656Z,19.76
2019-06-20T02:48:58.412Z,19.76
2019-06-20T02:51:29.334Z,19.82
2019-06-20T02:53:59.224Z,19.92
2019-06-20T02:56:29.214Z,19.90
2019-06-20T02:58:59.125Z,19.90
2019-06-20T03:01:29.428Z,20.09
2019-06-20T03:03:59.311Z,20.29
2019-06-20T03:06:29.516Z,20.50
2019-06-20T03:08:59.333Z,20.65
2019-06-20T03:11:29.315Z,20.75
2019-06-20T03:13:59.243Z,20.73
2019-06-20T03:16:29.151Z,20.75
2019-06-20T03:18:58.977Z,20.73
2019-06-20T03:21:28.916Z,20.68
2019-06-20T03:23:59.881Z,20.68
2019-06-20T03:26:29.736Z,20.51
2019-06-20T03:28:59.559Z,20.17
2019-06-20T03:31:29.541Z,19.96
2019-06-20T03:33:59.402Z,19.65
2019-06-20T03:36:29.453Z,19.47
2019-06-20T03:38:59.313Z,19.36
2019-06-20T03:41:29.136Z,19.27
2019-06-20T03:43:59.244Z,19.19
2019-06-20T03:46:29.170Z,19.21
2019-06-20T03:48:58.987Z,19.33
2019-06-20T03:51:28.801Z,19.50
2019-06-20T03:53:58.696Z,19.55
2019-06-20T03:56:28.604Z,19.62
2019-06-20T03:58:58.522Z,19.62
2019-06-20T04:01:28.411Z,19.59
2019-06-20T04:03:58.249Z,19.55
2019-06-20T04:06:28.071Z,19.66
2019-06-20T04:08:57.891Z,19.85
2019-06-20T04:11:27.883Z,19.86
2019-06-20T04:13:57.772Z,19.98
2019-06-20T04:16:27.620Z,20.16
2019-06-20T04:18:57.464Z,20.28
2019-06-20T04:21:27.390Z,20.14
2019-06-20T04:23:57.320Z,20.09
2019-06-20T04:26:27.314Z,20.06
2019-06-20T04:28:57.319Z,20.07
2019-06-20T04:31:27.210Z,20.08
2019-06-20T04:33:57.086Z,20.12
2019-06-20T04:36:26.925Z,20.19
2019-06-20T04:38:56.925Z,20.18
2019-06-20T04:41:26.739Z,20.19
2019-06-20T04:43:56.581Z,20.22
2019-06-20T04:46:41.566Z,20.35
2019-06-20T04:49:11.402Z,20.32
2019-06-20T04:51:41.401Z,20.32
2019-06-20T04:54:11.370Z,20.28
2019-06-20T04:56:44.450Z,20.22
2019-06-20T04:59:16.086Z,20.28
2019-06-20T05:01:46.880Z,20.38
2019-06-20T05:04:16.811Z,20.29
2019-06-20T05:06:50.187Z,20.39
2019-06-20T05:09:20.144Z,20.54
2019-06-20T05:11:49.977Z,20.72
2019-06-20T05:14:19.809Z,20.94
2019-06-20T05:16:49.706Z,21.04
2019-06-20T05:19:19.650Z,21.06
2019-06-20T05:21:49.529Z,21.08
2019-06-20T05:24:19.399Z,21.17
2019-06-20T05:26:49.311Z,21.14
2019-06-20T05:29:19.355Z,21.21
2019-06-20T05:31:49.270Z,21.31
2019-06-20T05:34:19.181Z,21.22
2019-06-20T05:36:49.121Z,21.17
2019-06-20T05:39:19.035Z,21.16
2019-06-20T05:41:48.856Z,21.22
2019-06-20T05:44:18.945Z,21.03
2019-06-20T05:46:49.188Z,21.20
2019-06-20T05:49:19.131Z,21.27
2019-06-20T05:51:49.004Z,21.40
2019-06-20T05:54:19.005Z,21.60
2019-06-20T05:56:48.909Z,21.71
2019-06-20T05:59:18.804Z,21.78
2019-06-20T06:01:48.720Z,21.85
2019-06-20T06:04:18.670Z,21.93
2019-06-20T06:06:48.476Z,22.16
2019-06-20T06:09:18.478Z,22.17
2019-06-20T06:11:48.398Z,22.25
2019-06-20T06:14:18.303Z,22.44
2019-06-20T06:16:48.205Z,22.54
2019-06-20T06:19:18.119Z,22.72
2019-06-20T06:21:47.926Z,22.81
2019-06-20T06:24:17.816Z,22.66
2019-06-20T06:26:47.855Z,22.97
2019-06-20T06:29:17.746Z,23.11
2019-06-20T06:31:47.566Z,23.22
2019-06-20T06:34:17.450Z,23.26
2019-06-20T06:36:47.321Z,23.29
2019-06-20T06:39:17.225Z,23.34
2019-06-20T06:41:47.172Z,23.15
2019-06-20T06:44:17.132Z,23.12
2019-06-20T06:46:54.247Z,23.10
2019-06-20T06:49:18.790Z,23.21
2019-06-20T06:51:48.850Z,23.10
2019-06-20T06:54:18.814Z,23.28
2019-06-20T06:56:48.746Z,23.47
2019-06-20T06:59:18.651Z,23.76
2019-06-20T07:01:48.641Z,23.77
2019-06-20T07:04:18.648Z,23.77
2019-06-20T07:06:48.630Z,23.87
2019-06-20T07:09:19.751Z,23.71
2019-06-20T07:11:49.705Z,23.71
2019-06-20T07:14:19.694Z,23.78
2019-06-20T07:16:59.868Z,23.74
2019-06-20T07:19:21.243Z,23.33
2019-06-20T07:21:51.079Z,23.31
2019-06-20T07:24:20.992Z,23.18
2019-06-20T07:26:50.957Z,22.93
2019-06-20T07:29:20.895Z,23.22
2019-06-20T07:31:50.760Z,23.61
2019-06-20T07:34:20.782Z,23.49
2019-06-20T07:36:50.738Z,23.75
2019-06-20T07:39:20.682Z,23.55
2019-06-20T07:41:50.665Z,23.43
2019-06-20T07:44:20.627Z,23.31
2019-06-20T07:46:50.641Z,23.65
2019-06-20T07:49:20.482Z,23.53
2019-06-20T07:51:50.416Z,23.76
2019-06-20T07:54:20.398Z,24.06
2019-06-20T07:56:50.304Z,24.10
2019-06-20T07:59:20.245Z,23.70
2019-06-20T08:01:50.207Z,23.75
2019-06-20T08:04:20.156Z,24.17
2019-06-20T08:06:50.057Z,24.70
2019-06-20T08:09:22.147Z,25.32
2019-06-20T08:11:51.775Z,24.73
2019-06-20T08:14:22.663Z,24.12
2019-06-20T08:16:52.673Z,24.20
2019-06-20T08:19:22.682Z,24.42
2019-06-20T08:21:52.550Z,24.48
2019-06-20T08:24:22.450Z,24.58
2019-06-20T08:26:52.378Z,24.63
2019-06-20T08:29:22.257Z,24.23
2019-06-20T08:31:52.230Z,24.03
2019-06-20T08:34:23.235Z,23.52
2019-06-20T08:36:53.233Z,23.76
2019-06-20T08:39:23.060Z,24.39
2019-06-20T08:41:53.174Z,24.85
2019-06-20T08:44:23.160Z,25.16
2019-06-20T08:46:53.062Z,25.02
2019-06-20T08:49:23.075Z,25.09
2019-06-20T08:51:53.075Z,24.94
2019-06-20T08:54:23.132Z,24.97
2019-06-20T08:56:55.605Z,25.30
2019-06-20T08:59:24.998Z,25.67
2019-06-20T09:01:58.023Z,25.71
2019-06-20T09:04:26.905Z,25.41
2019-06-20T09:06:57.573Z,25.70
2019-06-20T09:09:28.407Z,25.68
2019-06-20T09:11:58.627Z,25.73
2019-06-20T09:14:28.617Z,25.65
2019-06-20T09:16:59.379Z,26.07
2019-06-20T09:19:29.539Z,25.40
2019-06-20T09:22:00.500Z,25.72
2019-06-20T09:24:30.568Z,25.52
2019-06-20T09:27:00.561Z,25.86
2019-06-20T09:29:41.318Z,26.12
2019-06-20T09:32:02.219Z,26.18
2019-06-20T09:34:32.128Z,26.42
2019-06-20T09:37:03.931Z,26.88
2019-06-20T09:39:33.884Z,27.10
2019-06-20T09:42:04.019Z,27.22
2019-06-20T09:44:33.856Z,27.11
2019-06-20T09:47:03.899Z,26.42
2019-06-20T09:49:33.899Z,26.27
2019-06-20T09:52:03.883Z,25.71
2019-06-20T09:54:33.778Z,25.69
2019-06-20T09:57:03.750Z,25.71
2019-06-20T09:59:33.721Z,25.31
2019-06-20T10:02:04.520Z,24.87
2019-06-20T10:04:34.432Z,24.67
2019-06-20T10:07:04.435Z,23.79
2019-06-20T10:09:34.447Z,23.53
2019-06-20T10:12:04.630Z,23.18
2019-06-20T10:14:34.601Z,23.05
2019-06-20T10:17:04.598Z,23.02
2019-06-20T10:19:34.514Z,22.86
2019-06-20T10:22:04.551Z,22.73
2019-06-20T10:24:34.479Z,22.75
2019-06-20T10:27:04.648Z,22.57
2019-06-20T10:29:34.554Z,22.40
2019-06-20T10:32:04.576Z,22.34
2019-06-20T10:34:34.412Z,22.33
2019-06-20T10:37:04.428Z,22.34
2019-06-20T10:39:34.352Z,22.59
2019-06-20T10:42:04.495Z,22.87
2019-06-20T10:44:34.488Z,23.00
2019-06-20T10:47:04.491Z,22.90
2019-06-20T10:49:34.493Z,22.86
2019-06-20T10:52:04.580Z,22.86
2019-06-20T10:54:34.586Z,23.11
2019-06-20T10:57:04.609Z,23.47
2019-06-20T10:59:34.518Z,24.12
2019-06-20T11:02:07.243Z,24.78
2019-06-20T11:04:36.641Z,24.85
2019-06-20T11:07:06.611Z,24.72
2019-06-20T11:09:36.630Z,25.16
2019-06-20T11:12:06.587Z,25.02
2019-06-20T11:14:38.663Z,25.11
2019-06-20T11:17:08.168Z,25.74
2019-06-20T11:19:39.663Z,26.01
2019-06-20T11:22:10.799Z,26.39
2019-06-20T11:24:40.995Z,26.63
2019-06-20T11:27:10.940Z,26.99
2019-06-20T11:29:41.644Z,27.30
2019-06-20T11:32:14.155Z,27.55
2019-06-20T11:34:45.117Z,27.80
2019-06-20T11:37:15.132Z,28.67
2019-06-20T11:39:45.125Z,29.02
2019-06-20T11:42:15.153Z,28.92
2019-06-20T11:44:45.133Z,28.42
2019-06-20T11:47:15.192Z,28.31
2019-06-20T11:49:46.990Z,27.97
2019-06-20T11:52:17.083Z,27.84
2019-06-20T11:54:46.974Z,27.81
2019-06-20T11:57:16.924Z,27.66
2019-06-20T11:59:46.864Z,27.95
2019-06-20T12:02:17.502Z,27.77
2019-06-20T12:04:47.481Z,27.49
2019-06-20T12:07:17.489Z,27.05
2019-06-20T12:09:47.392Z,27.69
2019-06-20T12:12:17.317Z,28.60
2019-06-20T12:14:48.520Z,27.90
2019-06-20T12:17:18.708Z,27.80
2019-06-20T12:19:48.828Z,27.72
2019-06-20T12:22:18.763Z,27.49
2019-06-20T12:24:48.929Z,26.74
2019-06-20T12:27:18.816Z,26.43
2019-06-20T12:29:49.386Z,26.66
2019-06-20T12:32:21.761Z,26.63
2019-06-20T12:35:02.886Z,26.26
2019-06-20T12:37:34.395Z,26.57
2019-06-20T12:40:04.848Z,26.23
2019-06-20T12:42:34.813Z,26.16
2019-06-20T12:45:05.101Z,25.98
2019-06-20T12:47:35.012Z,25.99
2019-06-20T12:50:05.787Z,25.92
2019-06-20T12:52:35.728Z,25.50
2019-06-20T12:55:06.206Z,25.33
2019-06-20T12:57:38.460Z,25.14
2019-06-20T13:00:09.556Z,25.14
2019-06-20T13:02:40.469Z,25.04
2019-06-20T13:05:14.127Z,24.72
2019-06-20T13:07:44.372Z,24.47
2019-06-20T13:10:14.784Z,24.26
2019-06-20T13:12:46.193Z,24.16
2019-06-20T13:15:18.178Z,24.00
2019-06-20T13:17:49.038Z,23.79
2019-06-20T13:20:20.669Z,23.75
2019-06-20T13:22:50.576Z,23.24
2019-06-20T13:25:21.616Z,23.01
2019-06-20T13:27:51.605Z,23.00
2019-06-20T13:30:22.073Z,23.03
2019-06-20T13:32:51.998Z,23.00
2019-06-20T13:35:22.210Z,22.98
2019-06-20T13:37:52.188Z,22.84
2019-06-20T13:40:22.374Z,22.79
2019-06-20T13:42:54.585Z,22.63
2019-06-20T13:45:26.279Z,22.68
2019-06-20T13:47:56.370Z,22.70
2019-06-20T13:50:27.428Z,22.67
2019-06-20T13:52:57.427Z,22.73
2019-06-20T13:55:27.497Z,22.67
2019-06-20T13:57:57.685Z,22.62
2019-06-20T14:00:28.295Z,22.70
2019-06-20T14:02:58.150Z,22.70
2019-06-20T14:05:28.135Z,22.62
2019-06-20T14:07:58.030Z,22.45
2019-06-20T14:10:27.915Z,21.84
2019-06-20T14:12:57.880Z,21.69
2019-06-20T14:15:27.880Z,19.96
2019-06-20T14:17:57.858Z,18.46
2019-06-20T14:20:27.864Z,17.96
2019-06-20T14:22:57.907Z,17.70
2019-06-20T14:25:27.814Z,17.55
2019-06-20T14:27:57.722Z,17.62
2019-06-20T14:30:28.824Z,17.48
2019-06-20T14:32:58.924Z,17.41
2019-06-20T14:35:28.762Z,17.38
2019-06-20T14:37:59.657Z,17.39
2019-06-20T14:40:29.654Z,17.37
2019-06-20T14:42:59.673Z,17.32
2019-06-20T14:45:29.647Z,17.24
2019-06-20T14:47:59.611Z,17.22
2019-06-20T14:50:29.470Z,17.18
2019-06-20T14:52:59.444Z,17.35
2019-06-20T14:55:29.594Z,17.28
2019-06-20T14:57:59.587Z,17.17
2019-06-20T15:00:31.020Z,17.15
2019-06-20T15:03:01.027Z,17.11
2019-06-20T15:05:34.715Z,16.96
2019-06-20T15:08:02.666Z,17.05
2019-06-20T15:10:32.492Z,17.15
2019-06-20T15:13:02.417Z,17.22
2019-06-20T15:15:32.307Z,17.36
2019-06-20T15:18:02.320Z,17.50
2019-06-20T15:20:32.133Z,17.41
2019-06-20T15:23:02.105Z,17.58
2019-06-20T15:25:32.097Z,17.58
2019-06-20T15:28:01.989Z,17.57
2019-06-20T15:30:31.801Z,17.75
2019-06-20T15:33:10.048Z,17.91
2019-06-20T15:35:33.477Z,17.97
2019-06-20T15:38:03.474Z,17.89
2019-06-20T15:40:33.322Z,17.95
2019-06-20T15:43:03.225Z,17.97
2019-06-20T15:45:33.188Z,18.12
2019-06-20T15:48:03.195Z,18.16
2019-06-20T15:50:33.158Z,18.12
2019-06-20T15:53:03.183Z,18.15
2019-06-20T15:55:32.980Z,18.36
2019-06-20T15:58:03.001Z,18.42
2019-06-20T16:00:33.688Z,18.73
2019-06-20T16:03:09.903Z,19.42
2019-06-20T16:05:35.370Z,19.94
2019-06-20T16:08:24.574Z,20.55
2019-06-20T16:10:54.479Z,21.25
2019-06-20T16:13:25.450Z,21.98
2019-06-20T16:15:55.374Z,22.51
2019-06-20T16:18:25.352Z,22.72
2019-06-20T16:20:55.210Z,22.91
2019-06-20T16:23:25.040Z,22.96
2019-06-20T16:25:55.035Z,22.63
2019-06-20T16:28:24.853Z,22.53
2019-06-20T16:31:07.893Z,22.29
2019-06-20T16:33:26.440Z,22.62
2019-06-20T16:35:56.418Z,22.77
2019-06-20T16:38:26.357Z,23.35
2019-06-20T16:40:56.340Z,23.90
2019-06-20T16:43:26.216Z,24.41
2019-06-20T16:45:56.260Z,25.05
2019-06-20T16:48:26.446Z,24.33
2019-06-20T16:50:56.279Z,23.77
2019-06-20T16:53:26.209Z,22.91
2019-06-20T16:55:56.252Z,22.49
2019-06-20T16:58:26.191Z,22.48
2019-06-20T17:00:56.137Z,22.61
2019-06-20T17:03:40.809Z,22.44
2019-06-20T17:05:57.679Z,22.29
2019-06-20T17:08:27.593Z,22.13
2019-06-20T17:10:57.525Z,22.19
2019-06-20T17:13:27.434Z,22.30
2019-06-20T17:15:57.356Z,22.63
2019-06-20T17:18:27.188Z,22.84
2019-06-20T17:20:57.262Z,22.62
2019-06-20T17:23:27.252Z,22.46
2019-06-20T17:25:57.085Z,22.46
2019-06-20T17:28:27.873Z,22.55
2019-06-20T17:30:57.840Z,22.82
2019-06-20T17:33:27.729Z,22.62
2019-06-20T17:35:57.635Z,22.20
2019-06-20T17:38:27.510Z,22.27
2019-06-20T17:40:58.531Z,22.00
2019-06-20T17:43:28.482Z,21.74
2019-06-20T17:45:58.540Z,21.40
2019-06-20T17:48:29.314Z,21.21
2019-06-20T17:50:59.210Z,21.04
2019-06-20T17:53:29.112Z,20.89
2019-06-20T17:55:59.007Z,20.85
2019-06-20T17:58:28.835Z,21.14
2019-06-20T18:00:58.796Z,21.11
2019-06-20T18:03:28.689Z,21.17
2019-06-20T18:05:58.774Z,21.31
2019-06-20T18:08:28.546Z,21.37
2019-06-20T18:10:58.361Z,21.18
2019-06-20T18:13:29.328Z,20.97
2019-06-20T18:15:59.152Z,20.89
2019-06-20T18:18:28.981Z,20.89
2019-06-20T18:20:58.889Z,20.87
2019-06-20T18:23:28.719Z,20.79
2019-06-20T18:25:59.730Z,20.74
2019-06-20T18:28:30.363Z,20.58
2019-06-20T18:31:00.308Z,20.52
2019-06-20T18:33:30.082Z,20.48
2019-06-20T18:35:59.988Z,20.32
2019-06-20T18:38:29.805Z,20.15
2019-06-20T18:40:59.697Z,20.09
2019-06-20T18:43:29.653Z,19.98
2019-06-20T18:45:59.501Z,19.90
2019-06-20T18:48:29.576Z,19.82
2019-06-20T18:50:59.491Z,19.71
2019-06-20T18:53:29.477Z,19.59
2019-06-20T18:55:59.456Z,19.46
2019-06-20T18:58:29.425Z,19.31
2019-06-20T19:00:59.417Z,19.21
2019-06-20T19:03:29.307Z,19.10
2019-06-20T19:05:59.280Z,18.96
2019-06-20T19:08:29.189Z,18.89
2019-06-20T19:10:59.088Z,18.82
2019-06-20T19:13:28.967Z,18.76
2019-06-20T19:15:58.907Z,18.72
2019-06-20T19:18:28.726Z,18.72
2019-06-20T19:20:58.701Z,18.71
2019-06-20T19:23:28.717Z,18.67
2019-06-20T19:25:58.695Z,18.64
2019-06-20T19:28:28.668Z,18.63
2019-06-20T19:30:58.565Z,18.58
2019-06-20T19:33:28.536Z,18.54
2019-06-20T19:36:17.695Z,18.43
2019-06-20T19:38:47.521Z,18.34
2019-06-20T19:41:17.580Z,18.28
2019-06-20T19:43:47.660Z,18.24
2019-06-20T19:46:17.593Z,18.17
2019-06-20T19:48:47.584Z,18.17
2019-06-20T19:51:17.575Z,18.15
2019-06-20T19:53:48.587Z,18.12
2019-06-20T19:56:18.525Z,18.09
2019-06-20T19:58:48.572Z,18.11
2019-06-20T20:01:18.560Z,18.10
2019-06-20T20:03:48.905Z,18.08
2019-06-20T20:06:19.947Z,18.02
2019-06-20T20:08:49.962Z,17.95
2019-06-20T20:11:19.874Z,17.93
2019-06-20T20:13:49.795Z,17.90
2019-06-20T20:16:20.610Z,17.90
2019-06-20T20:18:50.457Z,17.86
2019-06-20T20:21:20.279Z,17.89
2019-06-20T20:23:50.123Z,17.87
2019-06-20T20:26:20.046Z,17.85
2019-06-20T20:28:50.044Z,17.88
2019-06-20T20:31:19.936Z,17.87
2019-06-20T20:33:49.792Z,17.81
2019-06-20T20:36:25.038Z,17.78
2019-06-20T20:38:51.187Z,17.80
2019-06-20T20:41:21.166Z,17.75
2019-06-20T20:43:51.412Z,17.69
2019-06-20T20:46:21.383Z,17.64
2019-06-20T20:48:51.303Z,17.60
2019-06-20T20:51:21.130Z,17.60
2019-06-20T20:53:51.102Z,17.57
2019-06-20T20:56:21.071Z,17.56
2019-06-20T20:58:50.921Z,17.53
2019-06-20T21:01:27.216Z,17.51
2019-06-20T21:03:57.114Z,17.49
2019-06-20T21:06:27.023Z,17.48
2019-06-20T21:08:57.017Z,17.50
2019-06-20T21:11:26.958Z,17.49
2019-06-20T21:13:56.891Z,17.51
2019-06-20T21:16:26.720Z,17.48
2019-06-20T21:18:56.739Z,17.46
2019-06-20T21:21:26.551Z,17.44
2019-06-20T21:23:56.449Z,17.42
2019-06-20T21:26:26.444Z,17.37
2019-06-20T21:28:56.366Z,17.26
2019-06-20T21:31:26.210Z,17.03
2019-06-20T21:33:56.123Z,17.25
2019-06-20T21:36:25.947Z,17.31
2019-06-20T21:38:56.754Z,17.28
2019-06-20T21:41:27.496Z,17.24
2019-06-20T21:43:57.443Z,17.21
2019-06-20T21:46:27.345Z,17.25
2019-06-20T21:48:57.309Z,17.36
2019-06-20T21:51:27.288Z,17.53
2019-06-20T21:53:57.109Z,17.56
2019-06-20T21:56:27.083Z,17.59
2019-06-20T21:58:56.913Z,17.59
2019-06-20T22:01:26.991Z,17.59
2019-06-20T22:03:57.905Z,17.60
2019-06-20T22:06:28.810Z,17.61
2019-06-20T22:08:58.744Z,17.52
2019-06-20T22:11:28.624Z,17.35
2019-06-20T22:13:58.700Z,17.26
2019-06-20T22:16:28.651Z,17.20
2019-06-20T22:18:58.508Z,17.17
2019-06-20T22:21:28.416Z,17.13
2019-06-20T22:23:58.334Z,17.12
2019-06-20T22:26:28.167Z,17.24
2019-06-20T22:28:58.065Z,17.33
2019-06-20T22:31:28.043Z,17.28
2019-06-20T22:33:57.929Z,17.17
2019-06-20T22:36:39.809Z,17.28
2019-06-20T22:38:59.418Z,17.48
2019-06-20T22:41:29.396Z,17.35
2019-06-20T22:43:59.326Z,17.35
2019-06-20T22:46:29.215Z,17.31
2019-06-20T22:48:59.054Z,17.34
2019-06-20T22:51:28.986Z,17.32
2019-06-20T22:53:59.008Z,17.29
2019-06-20T22:56:28.814Z,17.32
2019-06-20T22:58:58.742Z,16.59
2019-06-20T23:01:28.716Z,16.89
2019-06-20T23:03:59.613Z,16.95
2019-06-20T23:06:29.496Z,17.19
2019-06-20T23:08:59.344Z,17.21
2019-06-20T23:11:29.346Z,17.32
2019-06-20T23:13:59.248Z,17.37
2019-06-20T23:16:29.147Z,17.17
2019-06-20T23:18:58.982Z,17.09
2019-06-20T23:21:28.927Z,17.03
2019-06-20T23:23:58.830Z,17.03
2019-06-20T23:26:28.823Z,17.09
2019-06-20T23:29:16.482Z,17.15
2019-06-20T23:31:46.299Z,17.03
2019-06-20T23:34:16.130Z,17.04
2019-06-20T23:36:46.040Z,17.10
2019-06-20T23:39:15.871Z,17.07
2019-06-20T23:41:45.931Z,17.00
2019-06-20T23:44:15.865Z,16.94
2019-06-20T23:46:45.906Z,17.00
2019-06-20T23:49:15.795Z,16.95
2019-06-20T23:51:51.235Z,16.99
2019-06-20T23:54:21.157Z,17.05
2019-06-20T23:56:51.136Z,17.08
2019-06-20T23:59:21.045Z,17.10
